sensor_id;sensor_type;location;lat;lon;timestamp;pressure;altitude;pressure_sealevel;temperature;humidity
44144;BME280;43510;51.920;4.492;2023-02-13T00:05:41;66952.03;;;9.85;79.87
44144;BME280;43510;51.920;4.492;2023-02-13T00:08:07;66963.72;;;9.96;80.33
44144;BME280;43510;51.920;4.492;2023-02-13T00:10:33;66942.72;;;9.79;80.22
44144;BME280;43510;51.920;4.492;2023-02-13T00:12:58;66947.19;;;9.83;80.21
44144;BME280;43510;51.920;4.492;2023-02-13T00:15:24;66962.78;;;9.97;80.54
44144;BME280;43510;51.920;4.492;2023-02-13T00:17:49;66964.84;;;9.97;80.74
44144;BME280;43510;51.920;4.492;2023-02-13T00:20:14;66946.06;;;9.82;81.01
44144;BME280;43510;51.920;4.492;2023-02-13T00:22:40;66963.34;;;9.98;80.72
44144;BME280;43510;51.920;4.492;2023-02-13T00:25:06;66958.72;;;9.91;80.91
44144;BME280;43510;51.920;4.492;2023-02-13T00:27:34;66964.28;;;9.96;80.92
44144;BME280;43510;51.920;4.492;2023-02-13T00:30:02;66962.06;;;9.94;81.21
44144;BME280;43510;51.920;4.492;2023-02-13T00:32:29;66938.25;;;9.75;81.13
44144;BME280;43510;51.920;4.492;2023-02-13T00:34:55;66949.41;;;9.85;81.24
44144;BME280;43510;51.920;4.492;2023-02-13T00:37:21;66959.44;;;9.94;81.18
44144;BME280;43510;51.920;4.492;2023-02-13T00:39:46;66968.34;;;10.02;81.43
44144;BME280;43510;51.920;4.492;2023-02-13T00:42:12;66967.63;;;9.99;81.26
44144;BME280;43510;51.920;4.492;2023-02-13T00:44:37;66958.66;;;9.98;81.15
44144;BME280;43510;51.920;4.492;2023-02-13T00:47:03;66962.22;;;9.97;81.10
44144;BME280;43510;51.920;4.492;2023-02-13T00:49:28;66968.34;;;10.02;81.15
44144;BME280;43510;51.920;4.492;2023-02-13T00:51:57;66970.59;;;10.04;81.20
44144;BME280;43510;51.920;4.492;2023-02-13T00:54:22;66980.22;;;10.15;81.05
44144;BME280;43510;51.920;4.492;2023-02-13T00:56:48;66976.16;;;10.09;80.51
44144;BME280;43510;51.920;4.492;2023-02-13T00:59:14;66982.28;;;10.15;80.60
44144;BME280;43510;51.920;4.492;2023-02-13T01:01:41;66987.16;;;10.17;80.64
44144;BME280;43510;51.920;4.492;2023-02-13T01:04:06;66975.81;;;10.04;80.23
44144;BME280;43510;51.920;4.492;2023-02-13T01:06:31;66977.66;;;10.08;80.50
44144;BME280;43510;51.920;4.492;2023-02-13T01:08:57;66966.13;;;10.00;80.34
44144;BME280;43510;51.920;4.492;2023-02-13T01:11:22;66965.75;;;10.02;80.18
44144;BME280;43510;51.920;4.492;2023-02-13T01:13:48;66986.22;;;10.18;80.82
44144;BME280;43510;51.920;4.492;2023-02-13T01:16:13;66982.13;;;10.12;80.41
44144;BME280;43510;51.920;4.492;2023-02-13T01:18:40;66975.44;;;10.06;80.89
44144;BME280;43510;51.920;4.492;2023-02-13T01:21:08;66978.06;;;10.06;81.40
44144;BME280;43510;51.920;4.492;2023-02-13T01:23:39;66965.41;;;9.97;81.10
44144;BME280;43510;51.920;4.492;2023-02-13T01:26:06;66968.75;;;10.00;81.46
44144;BME280;43510;51.920;4.492;2023-02-13T01:28:32;66948.69;;;9.82;81.77
44144;BME280;43510;51.920;4.492;2023-02-13T01:43:59;66963.16;;;9.95;82.23
44144;BME280;43510;51.920;4.492;2023-02-13T01:46:34;66967.63;;;9.99;82.37
44144;BME280;43510;51.920;4.492;2023-02-13T01:49:10;66970.25;;;9.99;82.33
44144;BME280;43510;51.920;4.492;2023-02-13T01:51:38;66966.53;;;9.98;81.99
44144;BME280;43510;51.920;4.492;2023-02-13T01:54:15;66966.53;;;9.98;82.39
44144;BME280;43510;51.920;4.492;2023-02-13T04:55:07;66935.69;;;9.68;88.32
44144;BME280;43510;51.920;4.492;2023-02-13T04:57:33;66924.16;;;9.60;88.31
44144;BME280;43510;51.920;4.492;2023-02-13T07:27:21;66857.69;;;8.97;99.06
44144;BME280;43510;51.920;4.492;2023-02-13T07:29:49;66864.53;;;9.06;98.99
44144;BME280;43510;51.920;4.492;2023-02-13T07:32:16;66866.75;;;9.08;99.12
44144;BME280;43510;51.920;4.492;2023-02-13T10:30:32;67221.75;;;12.32;79.52
44144;BME280;43510;51.920;4.492;2023-02-13T10:36:02;67251.94;;;12.59;78.62
44144;BME280;43510;51.920;4.492;2023-02-13T10:38:31;67253.03;;;12.60;78.52
44144;BME280;43510;51.920;4.492;2023-02-13T11:03:42;67301.13;;;13.04;73.84
44144;BME280;43510;51.920;4.492;2023-02-13T11:06:13;67281.69;;;12.89;74.17
44144;BME280;43510;51.920;4.492;2023-02-13T11:08:42;67274.28;;;12.80;74.67
44144;BME280;43510;51.920;4.492;2023-02-13T12:18:42;67418.00;;;14.10;67.09
44144;BME280;43510;51.920;4.492;2023-02-13T12:27:23;67418.38;;;14.08;66.89
44144;BME280;43510;51.920;4.492;2023-02-13T12:32:58;67438.69;;;14.28;65.98
44144;BME280;43510;51.920;4.492;2023-02-13T12:42:11;67424.31;;;14.18;65.39
44144;BME280;43510;51.920;4.492;2023-02-13T12:48:21;67435.34;;;14.25;65.59
44144;BME280;43510;51.920;4.492;2023-02-13T12:50:45;67428.06;;;14.19;65.67
44144;BME280;43510;51.920;4.492;2023-02-13T14:00:36;67379.97;;;13.75;65.10
44144;BME280;43510;51.920;4.492;2023-02-13T14:03:20;67392.84;;;13.87;65.29
44144;BME280;43510;51.920;4.492;2023-02-13T14:06:03;67380.91;;;13.74;65.14
44144;BME280;43510;51.920;4.492;2023-02-13T14:11:06;67378.69;;;13.72;65.33
44144;BME280;43510;51.920;4.492;2023-02-13T14:13:48;67382.38;;;13.80;65.14
44144;BME280;43510;51.920;4.492;2023-02-13T14:16:43;67390.59;;;13.85;65.12
44144;BME280;43510;51.920;4.492;2023-02-13T14:19:38;67383.88;;;13.79;65.41
44144;BME280;43510;51.920;4.492;2023-02-13T14:42:58;67370.84;;;13.65;66.48
44144;BME280;43510;51.920;4.492;2023-02-13T15:42:18;67321.25;;;13.22;69.07
44144;BME280;43510;51.920;4.492;2023-02-13T15:44:46;67317.34;;;13.19;69.46
44144;BME280;43510;51.920;4.492;2023-02-13T15:47:17;67317.75;;;13.17;69.63
44144;BME280;43510;51.920;4.492;2023-02-13T15:49:49;67313.03;;;13.17;69.53
44144;BME280;43510;51.920;4.492;2023-02-13T15:52:24;67316.22;;;13.18;70.07
44144;BME280;43510;51.920;4.492;2023-02-13T15:54:54;67322.03;;;13.18;69.73
44144;BME280;43510;51.920;4.492;2023-02-13T15:57:20;67313.44;;;13.15;69.61
44144;BME280;43510;51.920;4.492;2023-02-13T15:59:48;67309.47;;;13.12;69.65
44144;BME280;43510;51.920;4.492;2023-02-13T16:02:40;67311.56;;;13.11;69.74
44144;BME280;43510;51.920;4.492;2023-02-13T16:05:13;67308.38;;;13.11;69.90
44144;BME280;43510;51.920;4.492;2023-02-13T16:07:54;67314.38;;;13.14;70.02
44144;BME280;43510;51.920;4.492;2023-02-13T16:12:58;67302.06;;;13.02;70.03
44144;BME280;43510;51.920;4.492;2023-02-13T16:15:27;67307.47;;;13.05;70.11
44144;BME280;43510;51.920;4.492;2023-02-13T16:17:54;67297.75;;;13.01;70.16
44144;BME280;43510;51.920;4.492;2023-02-13T16:20:26;67301.13;;;13.04;70.26
44144;BME280;43510;51.920;4.492;2023-02-13T16:22:57;67292.72;;;12.96;70.58
44144;BME280;43510;51.920;4.492;2023-02-13T16:28:13;67296.63;;;13.00;70.98
44144;BME280;43510;51.920;4.492;2023-02-13T16:30:43;67292.16;;;12.96;70.65
44144;BME280;43510;51.920;4.492;2023-02-13T16:38:44;67292.16;;;12.96;71.41
44144;BME280;43510;51.920;4.492;2023-02-13T16:44:00;67281.56;;;12.86;71.72
44144;BME280;43510;51.920;4.492;2023-02-13T16:46:40;67280.81;;;12.83;72.04
44144;BME280;43510;51.920;4.492;2023-02-13T16:54:35;67266.47;;;12.73;73.79
44144;BME280;43510;51.920;4.492;2023-02-13T17:04:52;67245.59;;;12.51;76.05
44144;BME280;43510;51.920;4.492;2023-02-13T17:07:34;67244.09;;;12.52;76.45
44144;BME280;43510;51.920;4.492;2023-02-13T17:10:06;67232.38;;;12.42;76.68
44144;BME280;43510;51.920;4.492;2023-02-13T17:12:34;67258.63;;;12.65;76.41
44144;BME280;43510;51.920;4.492;2023-02-13T17:15:01;67232.94;;;12.42;76.76
44144;BME280;43510;51.920;4.492;2023-02-13T17:17:29;67221.59;;;12.30;77.23
44144;BME280;43510;51.920;4.492;2023-02-13T17:19:55;67223.09;;;12.28;77.93
44144;BME280;43510;51.920;4.492;2023-02-13T17:24:56;67213.94;;;12.25;78.74
44144;BME280;43510;51.920;4.492;2023-02-13T17:27:34;67211.13;;;12.22;79.41
44144;BME280;43510;51.920;4.492;2023-02-13T17:30:01;67205.00;;;12.17;79.43
44144;BME280;43510;51.920;4.492;2023-02-13T17:32:28;67199.09;;;12.07;79.90
44144;BME280;43510;51.920;4.492;2023-02-13T17:34:54;67200.53;;;12.13;80.27
44144;BME280;43510;51.920;4.492;2023-02-13T17:37:28;67194.00;;;12.09;81.12
44144;BME280;43510;51.920;4.492;2023-02-13T17:39:55;67183.56;;;12.02;80.96
44144;BME280;43510;51.920;4.492;2023-02-13T17:42:26;67196.63;;;12.09;81.88
44144;BME280;43510;51.920;4.492;2023-02-13T17:44:53;67191.59;;;12.05;81.78
44144;BME280;43510;51.920;4.492;2023-02-13T17:47:19;67191.44;;;12.02;81.72
44144;BME280;43510;51.920;4.492;2023-02-13T17:49:45;67183.78;;;11.98;82.03
44144;BME280;43510;51.920;4.492;2023-02-13T17:52:33;67189.75;;;12.01;82.97
44144;BME280;43510;51.920;4.492;2023-02-13T17:54:59;67174.28;;;11.89;82.61
44144;BME280;43510;51.920;4.492;2023-02-13T17:57:24;67175.63;;;11.85;83.04
44144;BME280;43510;51.920;4.492;2023-02-13T17:59:52;67175.78;;;11.88;83.65
44144;BME280;43510;51.920;4.492;2023-02-13T18:02:20;67166.47;;;11.82;83.92
44144;BME280;43510;51.920;4.492;2023-02-13T18:04:48;67155.66;;;11.70;83.86
44144;BME280;43510;51.920;4.492;2023-02-13T18:07:16;67166.31;;;11.79;83.64
44144;BME280;43510;51.920;4.492;2023-02-13T18:09:42;67149.69;;;11.67;84.37
44144;BME280;43510;51.920;4.492;2023-02-13T18:12:22;67162.16;;;11.80;84.33
44144;BME280;43510;51.920;4.492;2023-02-13T18:14:49;67157.53;;;11.74;84.30
44144;BME280;43510;51.920;4.492;2023-02-13T18:17:15;67149.16;;;11.66;84.80
44144;BME280;43510;51.920;4.492;2023-02-13T18:19:41;67155.09;;;11.69;84.86
44144;BME280;43510;51.920;4.492;2023-02-13T18:22:08;67153.28;;;11.65;84.99
44144;BME280;43510;51.920;4.492;2023-02-13T18:24:36;67144.50;;;11.60;85.13
44144;BME280;43510;51.920;4.492;2023-02-13T18:27:02;67138.53;;;11.57;85.12
44144;BME280;43510;51.920;4.492;2023-02-13T18:29:27;67129.44;;;11.46;85.17
44144;BME280;43510;51.920;4.492;2023-02-13T18:32:07;67129.75;;;11.51;86.02
44144;BME280;43510;51.920;4.492;2023-02-13T18:34:34;67127.75;;;11.44;85.97
44144;BME280;43510;51.920;4.492;2023-02-13T18:37:00;67127.75;;;11.44;85.93
44144;BME280;43510;51.920;4.492;2023-02-13T18:39:41;67131.66;;;11.48;86.44
44144;BME280;43510;51.920;4.492;2023-02-13T18:42:08;67122.72;;;11.40;86.39
44144;BME280;43510;51.920;4.492;2023-02-13T18:44:34;67129.81;;;11.44;86.05
44144;BME280;43510;51.920;4.492;2023-02-13T18:47:19;67132.38;;;11.51;86.88
44144;BME280;43510;51.920;4.492;2023-02-13T18:49:44;67126.25;;;11.45;86.56
44144;BME280;43510;51.920;4.492;2023-02-13T18:52:15;67127.94;;;11.47;86.84
44144;BME280;43510;51.920;4.492;2023-02-13T18:54:40;67124.22;;;11.39;86.68
44144;BME280;43510;51.920;4.492;2023-02-13T18:57:20;67127.38;;;11.46;86.78
44144;BME280;43510;51.920;4.492;2023-02-13T18:59:48;67115.09;;;11.35;87.12
44144;BME280;43510;51.920;4.492;2023-02-13T19:02:13;67119.41;;;11.37;86.47
44144;BME280;43510;51.920;4.492;2023-02-13T19:04:39;67116.59;;;11.34;86.37
44144;BME280;43510;51.920;4.492;2023-02-13T19:07:04;67105.59;;;11.27;87.05
44144;BME280;43510;51.920;4.492;2023-02-13T19:09:30;67104.50;;;11.26;86.83
44144;BME280;43510;51.920;4.492;2023-02-13T19:11:55;67110.47;;;11.29;86.64
44144;BME280;43510;51.920;4.492;2023-02-13T19:14:21;67113.06;;;11.29;87.07
44144;BME280;43510;51.920;4.492;2023-02-13T19:16:47;67109.50;;;11.30;87.25
44144;BME280;43510;51.920;4.492;2023-02-13T19:19:12;67108.94;;;11.30;87.16
44144;BME280;43510;51.920;4.492;2023-02-13T19:21:37;67109.34;;;11.28;87.05
44144;BME280;43510;51.920;4.492;2023-02-13T19:24:05;67102.41;;;11.26;87.27
44144;BME280;43510;51.920;4.492;2023-02-13T19:26:32;67100.00;;;11.22;87.39
44144;BME280;43510;51.920;4.492;2023-02-13T19:28:58;67097.63;;;11.17;87.37
44144;BME280;43510;51.920;4.492;2023-02-13T19:31:28;67099.84;;;11.19;87.96
44144;BME280;43510;51.920;4.492;2023-02-13T19:33:53;67087.75;;;11.11;88.00
44144;BME280;43510;51.920;4.492;2023-02-13T19:36:24;67089.56;;;11.15;88.19
44144;BME280;43510;51.920;4.492;2023-02-13T19:38:56;67099.69;;;11.17;88.30
44144;BME280;43510;51.920;4.492;2023-02-13T19:41:22;67081.59;;;11.05;87.91
44144;BME280;43510;51.920;4.492;2023-02-13T19:44:00;67088.84;;;11.12;88.81
44144;BME280;43510;51.920;4.492;2023-02-13T19:46:28;67086.47;;;11.07;88.65
44144;BME280;43510;51.920;4.492;2023-02-13T19:48:56;67067.66;;;10.92;88.44
44144;BME280;43510;51.920;4.492;2023-02-13T19:51:26;67073.78;;;10.98;88.74
44144;BME280;43510;51.920;4.492;2023-02-13T19:54:06;67083.66;;;11.04;89.15
44144;BME280;43510;51.920;4.492;2023-02-13T19:56:34;67073.47;;;10.93;88.75
44144;BME280;43510;51.920;4.492;2023-02-13T19:59:02;67074.19;;;10.96;88.81
44144;BME280;43510;51.920;4.492;2023-02-13T20:01:28;67071.00;;;10.95;88.96
44144;BME280;43510;51.920;4.492;2023-02-13T20:03:54;67078.25;;;11.02;89.03
44144;BME280;43510;51.920;4.492;2023-02-13T20:06:34;67079.94;;;11.03;89.26
44144;BME280;43510;51.920;4.492;2023-02-13T20:09:04;67075.47;;;10.99;88.60
44144;BME280;43510;51.920;4.492;2023-02-13T20:11:30;67074.34;;;10.98;88.82
44144;BME280;43510;51.920;4.492;2023-02-13T20:13:58;67073.22;;;10.97;88.70
44144;BME280;43510;51.920;4.492;2023-02-13T20:16:33;67067.66;;;10.92;89.15
44144;BME280;43510;51.920;4.492;2023-02-13T20:19:04;67066.53;;;10.91;89.22
44144;BME280;43510;51.920;4.492;2023-02-13T20:21:32;67093.16;;;11.13;88.81
44144;BME280;43510;51.920;4.492;2023-02-13T20:23:58;67064.88;;;10.90;88.90
44144;BME280;43510;51.920;4.492;2023-02-13T20:26:23;67059.69;;;10.83;89.08
44144;BME280;43510;51.920;4.492;2023-02-13T20:28:59;67065.81;;;10.88;89.26
44144;BME280;43510;51.920;4.492;2023-02-13T20:31:25;67058.75;;;10.84;89.27
44144;BME280;43510;51.920;4.492;2023-02-13T20:33:51;67040.16;;;10.65;89.06
44144;BME280;43510;51.920;4.492;2023-02-13T20:36:22;67047.00;;;10.74;89.29
44144;BME280;43510;51.920;4.492;2023-02-13T20:38:50;67057.63;;;10.83;89.00
44144;BME280;43510;51.920;4.492;2023-02-13T20:41:19;67050.19;;;10.74;89.42
44144;BME280;43510;51.920;4.492;2023-02-13T20:43:51;67057.44;;;10.81;89.63
44144;BME280;43510;51.920;4.492;2023-02-13T20:46:17;67052.81;;;10.74;89.62
44144;BME280;43510;51.920;4.492;2023-02-13T20:48:47;67041.28;;;10.66;89.81
44144;BME280;43510;51.920;4.492;2023-02-13T20:51:14;67036.41;;;10.64;89.38
44144;BME280;43510;51.920;4.492;2023-02-13T20:53:41;67041.44;;;10.69;89.57
44144;BME280;43510;51.920;4.492;2023-02-13T20:56:17;67048.91;;;10.71;89.49
44144;BME280;43510;51.920;4.492;2023-02-13T20:58:46;67044.78;;;10.72;89.38
44144;BME280;43510;51.920;4.492;2023-02-13T21:01:24;67050.59;;;10.72;89.54
44144;BME280;43510;51.920;4.492;2023-02-13T21:03:51;67043.34;;;10.66;89.31
44144;BME280;43510;51.920;4.492;2023-02-13T21:06:26;67039.03;;;10.64;88.87
44144;BME280;43510;51.920;4.492;2023-02-13T21:08:52;67047.00;;;10.74;88.75
44144;BME280;43510;51.920;4.492;2023-02-13T21:11:18;67050.03;;;10.72;89.17
44144;BME280;43510;51.920;4.492;2023-02-13T21:13:45;67033.47;;;10.59;88.58
44144;BME280;43510;51.920;4.492;2023-02-13T21:16:16;67031.97;;;10.60;88.91
44144;BME280;43510;51.920;4.492;2023-02-13T21:18:43;67047.22;;;10.69;88.12
44144;BME280;43510;51.920;4.492;2023-02-13T21:21:11;67040.53;;;10.63;88.27
44144;BME280;43510;51.920;4.492;2023-02-13T21:23:37;67035.84;;;10.63;88.65
44144;BME280;43510;51.920;4.492;2023-02-13T21:26:22;67042.94;;;10.68;88.83
44144;BME280;43510;51.920;4.492;2023-02-13T21:28:48;67035.69;;;10.61;88.30
44144;BME280;43510;51.920;4.492;2023-02-13T21:31:19;67036.09;;;10.59;88.37
44144;BME280;43510;51.920;4.492;2023-02-13T21:33:47;67025.81;;;10.54;88.56
44144;BME280;43510;51.920;4.492;2023-02-13T21:36:13;67035.53;;;10.58;88.63
44144;BME280;43510;51.920;4.492;2023-02-13T21:38:39;67031.78;;;10.57;88.27
44144;BME280;43510;51.920;4.492;2023-02-13T21:41:14;67034.19;;;10.62;89.04
44144;BME280;43510;51.920;4.492;2023-02-13T21:43:40;67006.31;;;10.37;88.52
44144;BME280;43510;51.920;4.492;2023-02-13T21:46:36;67034.97;;;10.58;89.31
44144;BME280;43510;51.920;4.492;2023-02-13T21:49:04;67018.56;;;10.48;88.68
44144;BME280;43510;51.920;4.492;2023-02-13T21:51:34;67012.97;;;10.43;89.15
44144;BME280;43510;51.920;4.492;2023-02-13T21:54:00;67011.31;;;10.41;89.38
44144;BME280;43510;51.920;4.492;2023-02-13T21:56:29;67012.44;;;10.42;89.33
44144;BME280;43510;51.920;4.492;2023-02-13T21:59:08;67014.66;;;10.44;89.86
44144;BME280;43510;51.920;4.492;2023-02-13T22:01:35;67011.53;;;10.37;89.28
44144;BME280;43510;51.920;4.492;2023-02-13T22:04:12;67010.75;;;10.41;90.09
44144;BME280;43510;51.920;4.492;2023-02-13T22:06:39;67001.44;;;10.35;89.86
44144;BME280;43510;51.920;4.492;2023-02-13T22:09:16;67009.31;;;10.35;90.20
44144;BME280;43510;51.920;4.492;2023-02-13T22:11:42;66995.13;;;10.27;89.74
44144;BME280;43510;51.920;4.492;2023-02-13T22:14:11;66993.09;;;10.27;90.06
44144;BME280;43510;51.920;4.492;2023-02-13T22:16:38;66981.19;;;10.14;90.69
44144;BME280;43510;51.920;4.492;2023-02-13T22:19:05;66986.78;;;10.19;90.59
44144;BME280;43510;51.920;4.492;2023-02-13T22:21:31;66987.72;;;10.17;90.64
44144;BME280;43510;51.920;4.492;2023-02-13T22:23:57;66984.00;;;10.16;90.54
44144;BME280;43510;51.920;4.492;2023-02-13T22:26:25;66979.53;;;10.12;90.86
44144;BME280;43510;51.920;4.492;2023-02-13T22:28:52;66971.88;;;10.08;91.00
44144;BME280;43510;51.920;4.492;2023-02-13T22:31:18;66962.78;;;9.97;90.87
44144;BME280;43510;51.920;4.492;2023-02-13T22:33:45;66969.69;;;9.99;91.51
44144;BME280;43510;51.920;4.492;2023-02-13T22:36:11;66964.28;;;9.96;91.32
44144;BME280;43510;51.920;4.492;2023-02-13T22:38:38;66959.81;;;9.92;91.77
44144;BME280;43510;51.920;4.492;2023-02-13T22:41:27;66960.00;;;9.95;91.79
44144;BME280;43510;51.920;4.492;2023-02-13T22:43:52;66953.31;;;9.89;91.45
44144;BME280;43510;51.920;4.492;2023-02-13T22:46:29;66956.44;;;9.96;91.88
44144;BME280;43510;51.920;4.492;2023-02-13T22:48:56;66951.47;;;9.84;91.78
44144;BME280;43510;51.920;4.492;2023-02-13T22:51:25;66949.41;;;9.85;91.85
44144;BME280;43510;51.920;4.492;2023-02-13T22:53:52;66949.41;;;9.85;92.16
44144;BME280;43510;51.920;4.492;2023-02-13T22:56:18;66946.06;;;9.82;92.27
44144;BME280;43510;51.920;4.492;2023-02-13T22:58:59;66954.81;;;9.88;92.54
44144;BME280;43510;51.920;4.492;2023-02-13T23:01:26;66942.16;;;9.78;92.18
44144;BME280;43510;51.920;4.492;2023-02-13T23:03:52;66951.47;;;9.84;92.00
44144;BME280;43510;51.920;4.492;2023-02-13T23:06:18;66943.84;;;9.80;92.28
44144;BME280;43510;51.920;4.492;2023-02-13T23:08:44;66944.94;;;9.81;92.14
44144;BME280;43510;51.920;4.492;2023-02-13T23:11:12;66939.38;;;9.76;92.34
44144;BME280;43510;51.920;4.492;2023-02-13T23:13:56;66937.13;;;9.74;92.23
44144;BME280;43510;51.920;4.492;2023-02-13T23:16:23;66942.94;;;9.74;92.74
44144;BME280;43510;51.920;4.492;2023-02-13T23:18:53;66938.81;;;9.75;92.48
44144;BME280;43510;51.920;4.492;2023-02-13T23:21:19;66927.50;;;9.63;92.24
44144;BME280;43510;51.920;4.492;2023-02-13T23:24:18;66952.03;;;9.85;92.81
44144;BME280;43510;51.920;4.492;2023-02-13T23:26:43;66935.88;;;9.70;92.00
44144;BME280;43510;51.920;4.492;2023-02-13T23:29:08;66932.69;;;9.70;92.38
44144;BME280;43510;51.920;4.492;2023-02-13T23:31:34;66929.00;;;9.62;92.50
44144;BME280;43510;51.920;4.492;2023-02-13T23:33:59;66929.19;;;9.64;92.49
44144;BME280;43510;51.920;4.492;2023-02-13T23:36:25;66932.72;;;9.63;92.34
44144;BME280;43510;51.920;4.492;2023-02-13T23:38:50;66914.84;;;9.54;92.46
44144;BME280;43510;51.920;4.492;2023-02-13T23:41:15;66917.47;;;9.54;92.90
44144;BME280;43510;51.920;4.492;2023-02-13T23:43:44;66917.63;;;9.56;93.47
44144;BME280;43510;51.920;4.492;2023-02-13T23:46:09;66906.50;;;9.46;93.14
44144;BME280;43510;51.920;4.492;2023-02-13T23:48:34;66915.25;;;9.52;93.24
44144;BME280;43510;51.920;4.492;2023-02-13T23:51:08;66914.84;;;9.54;93.93
44144;BME280;43510;51.920;4.492;2023-02-13T23:53:34;66904.44;;;9.47;93.71
44144;BME280;43510;51.920;4.492;2023-02-13T23:56:05;66909.13;;;9.46;94.30
44144;BME280;43510;51.920;4.492;2023-02-13T23:58:31;66907.81;;;9.42;94.10
